createdAt,value
2023-02-17T00:05:27.547Z,68.33
2023-02-17T00:11:29.765Z,63.33
2023-02-17T00:17:32.841Z,61.67
2023-02-17T00:23:35.272Z,64.67
2023-02-17T00:29:37.400Z,67.33
2023-02-17T00:35:41.196Z,66.00
2023-02-17T00:41:44.901Z,65.67
2023-02-17T00:47:48.044Z,64.00
2023-02-17T00:53:52.638Z,68.33
2023-02-17T00:59:59.260Z,67.00
2023-02-17T01:06:07.954Z,72.00
2023-02-17T01:12:12.458Z,70.67
2023-02-17T01:18:19.378Z,69.67
2023-02-17T01:24:21.594Z,72.00
2023-02-17T01:30:24.331Z,69.00
2023-02-17T01:36:27.407Z,73.00
2023-02-17T01:42:30.438Z,73.67
2023-02-17T01:48:41.519Z,68.67
2023-02-17T01:54:48.942Z,65.33
2023-02-17T02:00:53.636Z,70.33
2023-02-17T02:06:56.084Z,68.67
2023-02-17T02:12:58.238Z,71.67
2023-02-17T02:19:17.205Z,68.67
2023-02-17T02:25:45.140Z,70.67
2023-02-17T02:31:56.245Z,73.50
2023-02-17T02:38:16.854Z,72.33
2023-02-17T02:44:21.388Z,69.33
2023-02-17T02:50:45.835Z,72.67
2023-02-17T02:57:03.310Z,72.00
2023-02-17T03:03:28.996Z,77.00
2023-02-17T03:09:32.172Z,67.00
2023-02-17T03:15:35.659Z,74.33
2023-02-17T03:21:43.759Z,74.67
2023-02-17T03:27:46.018Z,74.33
2023-02-17T03:33:50.060Z,73.67
2023-02-17T03:39:52.349Z,72.00
2023-02-17T03:45:55.114Z,76.00
2023-02-17T03:51:58.479Z,74.33
2023-02-17T03:58:00.747Z,73.67
2023-02-17T04:04:03.775Z,73.00
2023-02-17T04:10:09.516Z,76.00
2023-02-17T04:16:13.789Z,70.33
2023-02-17T04:22:15.887Z,68.33
2023-02-17T04:28:21.551Z,72.33
2023-02-17T04:34:23.752Z,75.00
2023-02-17T04:40:29.427Z,69.33
2023-02-17T04:46:31.568Z,74.33
2023-02-17T04:52:34.000Z,75.00
2023-02-17T04:58:36.512Z,75.00
2023-02-17T05:18:22.422Z,74.33
2023-02-17T05:25:10.194Z,74.33
2023-02-17T05:39:07.002Z,75.00
2023-02-17T05:46:13.426Z,67.67
2023-02-17T05:53:16.113Z,76.67
2023-02-17T06:12:45.996Z,78.67
2023-02-17T06:31:54.361Z,78.67
2023-02-17T06:38:12.875Z,82.00
2023-02-17T06:44:19.027Z,74.33
2023-02-17T06:50:37.948Z,80.00
2023-02-17T06:56:48.780Z,73.00
2023-02-17T07:02:53.051Z,76.67
2023-02-17T07:08:57.924Z,78.00
2023-02-17T07:15:06.556Z,76.67
2023-02-17T07:28:09.179Z,87.67
2023-02-17T07:35:31.471Z,77.00
2023-02-17T08:02:28.303Z,88.00
2023-02-17T08:09:22.753Z,76.00
2023-02-17T08:15:55.846Z,82.67
2023-02-17T08:22:13.053Z,89.33
2023-02-17T08:35:42.410Z,86.00
2023-02-17T08:55:16.276Z,89.33
2023-02-17T09:01:26.516Z,89.33
2023-02-17T09:21:28.109Z,93.33
2023-02-17T09:42:17.503Z,88.00
2023-02-17T09:48:55.770Z,87.00
2023-02-17T10:10:01.467Z,81.75
2023-02-17T10:30:17.243Z,76.75
2023-02-17T10:51:32.977Z,87.00
2023-02-17T11:12:58.404Z,69.75
2023-02-17T11:20:10.864Z,72.50
2023-02-17T11:54:54.369Z,67.50
2023-02-17T12:01:56.925Z,69.25
2023-02-17T12:08:58.729Z,70.50
2023-02-17T12:22:33.736Z,65.50
2023-02-17T12:37:10.985Z,58.75
2023-02-17T12:43:53.291Z,63.25
2023-02-17T13:05:18.823Z,57.50
2023-02-17T13:11:53.629Z,58.75
2023-02-17T13:25:35.687Z,57.50
2023-02-17T13:32:29.344Z,58.75
2023-02-17T13:39:53.428Z,54.75
2023-02-17T13:46:13.724Z,59.25
2023-02-17T13:52:45.288Z,55.00
2023-02-17T13:59:01.244Z,49.75
2023-02-17T14:05:46.328Z,48.00
2023-02-17T14:11:56.701Z,45.00
2023-02-17T14:18:18.423Z,42.00
2023-02-17T14:24:47.282Z,48.33
2023-02-17T14:31:01.208Z,50.50
2023-02-17T14:43:58.351Z,48.00
2023-02-17T14:50:38.986Z,50.50
2023-02-17T15:04:42.549Z,44.50
2023-02-17T15:11:35.105Z,50.75
2023-02-17T15:17:52.580Z,46.25
2023-02-17T15:24:40.118Z,50.25
2023-02-17T15:31:35.741Z,52.25
2023-02-17T15:37:44.324Z,50.25
2023-02-17T16:24:17.149Z,55.75
2023-02-17T16:43:45.077Z,58.50
2023-02-17T16:49:54.183Z,62.00
2023-02-17T16:56:22.472Z,64.00
2023-02-17T17:02:35.744Z,68.25
2023-02-17T17:15:12.638Z,66.75
2023-02-17T17:21:30.786Z,65.00
2023-02-17T17:27:49.544Z,67.50
2023-02-17T17:34:04.592Z,68.25
2023-02-17T17:41:00.419Z,67.00
2023-02-17T17:54:20.949Z,67.00
2023-02-17T18:00:46.547Z,67.50
2023-02-17T18:13:44.630Z,67.25
2023-02-17T18:20:31.330Z,66.50
2023-02-17T18:33:30.067Z,64.50
2023-02-17T18:53:46.973Z,67.75
2023-02-17T19:00:11.257Z,62.50
2023-02-17T19:06:29.364Z,65.00
2023-02-17T19:12:50.653Z,60.00
2023-02-17T19:19:48.470Z,57.25
2023-02-17T19:26:35.906Z,58.75
2023-02-17T19:33:03.906Z,60.50
2023-02-17T19:40:08.594Z,53.75
2023-02-17T20:00:08.417Z,51.50
2023-02-17T20:13:08.840Z,50.75
2023-02-17T20:19:29.496Z,45.50
2023-02-17T20:26:16.712Z,51.75
2023-02-17T20:32:46.345Z,49.00
2023-02-17T20:38:53.186Z,52.75
2023-02-17T20:45:36.947Z,52.25
2023-02-17T20:52:03.402Z,49.25
2023-02-17T20:58:35.261Z,54.00
2023-02-17T21:04:43.160Z,56.00
2023-02-17T21:11:04.562Z,55.75
2023-02-17T21:17:15.666Z,54.25
2023-02-17T21:23:53.061Z,55.50
2023-02-17T21:30:31.138Z,53.00
2023-02-17T21:36:46.596Z,53.00
2023-02-17T21:43:20.198Z,51.00
2023-02-17T21:49:39.657Z,45.75
2023-02-17T21:56:24.498Z,52.50
2023-02-17T22:03:01.024Z,49.00
2023-02-17T22:09:38.011Z,51.75
2023-02-17T22:16:05.737Z,49.00
2023-02-17T22:22:25.622Z,58.50
2023-02-17T22:28:58.720Z,48.75
2023-02-17T22:35:18.242Z,49.00
2023-02-17T22:41:30.028Z,50.50
2023-02-17T23:06:47.239Z,47.25
2023-02-17T23:19:16.769Z,45.00
2023-02-17T23:25:34.919Z,49.50
2023-02-17T23:44:59.101Z,41.50
2023-02-17T23:51:07.736Z,43.50
2023-02-17T23:57:13.774Z,43.75
